Time;durP1;ratioP1;P1;durP2;ratioP2;P2;SDS_P1;SDS_P2;PMS_P1;PMS_P2;Temp;Humidity;BMP_temperature;BMP_pressure;BME280_temperature;BME280_humidity;BME280_pressure;Samples;Min_cycle;Max_cycle;Signal;HPM_P1;HPM_P2
2023/06/27 00:00:20;;;;;;;10.90;3.90;;;;;;;13.24;100.00;101479.53;7394881;19;20515;-41
2023/06/27 00:02:53;;;;;;;18.30;3.90;;;;;;;13.23;100.00;101475.19;7367956;19;20430;-40
2023/06/27 00:05:26;;;;;;;13.20;3.57;;;;;;;13.19;100.00;101471.56;7393515;19;20406;-42
2023/06/27 00:07:55;;;;;;;14.20;4.60;;;;;;;13.32;100.00;101456.53;7369324;19;20498;-44
2023/06/27 00:10:25;;;;;;;12.77;3.77;;;;;;;13.30;100.00;101459.06;7393561;19;20451;-42
2023/06/27 00:12:56;;;;;;;14.90;3.60;;;;;;;13.25;100.00;101458.00;7367909;19;20986;-44
2023/06/27 00:15:29;;;;;;;13.00;3.30;;;;;;;13.19;100.00;101456.00;7393564;19;20411;-45
2023/06/27 00:17:58;;;;;;;19.50;3.10;;;;;;;13.22;100.00;101450.97;7368039;19;20458;-41
2023/06/27 00:20:34;;;;;;;14.83;3.33;;;;;;;13.16;100.00;101450.72;7394445;19;20459;-43
2023/06/27 00:23:18;;;;;;;14.37;3.83;;;;;;;13.18;100.00;101450.78;7373785;19;20976;-41
2023/06/27 00:25:48;;;;;;;8.60;2.80;;;;;;;13.16;100.00;101445.53;7399364;19;20430;-46
2023/06/27 00:28:18;;;;;;;9.10;3.30;;;;;;;13.10;100.00;101447.88;7377268;19;20430;-42
2023/06/27 00:30:48;;;;;;;12.57;3.90;;;;;;;13.10;100.00;101443.56;7399933;19;20978;-42
2023/06/27 00:33:18;;;;;;;17.73;4.10;;;;;;;13.16;100.00;101449.81;7375985;19;20574;-42
2023/06/27 00:35:50;;;;;;;12.77;3.80;;;;;;;13.16;100.00;101439.44;7402137;19;20870;-41
2023/06/27 00:38:19;;;;;;;15.20;3.80;;;;;;;13.14;100.00;101436.81;7375537;19;20538;-44
2023/06/27 00:40:49;;;;;;;17.83;3.10;;;;;;;13.16;100.00;101442.03;7401669;19;20441;-42
2023/06/27 00:43:19;;;;;;;24.63;3.57;;;;;;;13.03;100.00;101433.75;7375535;19;20979;-42
2023/06/27 00:45:48;;;;;;;15.40;3.27;;;;;;;12.96;100.00;101431.72;7399457;19;20421;-44
2023/06/27 00:48:18;;;;;;;13.53;3.57;;;;;;;12.90;100.00;101422.00;7375637;19;20425;-42
2023/06/27 00:50:51;;;;;;;7.20;2.73;;;;;;;12.92;100.00;101417.75;7401905;19;20444;-42
2023/06/27 00:53:21;;;;;;;15.63;3.37;;;;;;;12.90;100.00;101410.75;7375975;19;20421;-42
2023/06/27 00:55:51;;;;;;;8.90;3.33;;;;;;;13.01;100.00;101399.13;7401686;19;20411;-45
2023/06/27 00:58:20;;;;;;;9.37;3.43;;;;;;;12.94;100.00;101402.28;7375328;19;20421;-44
2023/06/27 01:00:50;;;;;;;10.10;3.00;;;;;;;12.93;100.00;101400.53;7401294;19;21001;-45
2023/06/27 01:03:21;;;;;;;14.33;2.87;;;;;;;12.90;100.00;101397.78;7374961;19;20426;-40
2023/06/27 01:05:53;;;;;;;9.20;2.87;;;;;;;12.89;100.00;101406.38;7403109;19;20409;-43
2023/06/27 01:08:31;;;;;;;17.70;4.10;;;;;;;12.83;100.00;101394.94;7374345;19;20960;-42
2023/06/27 01:11:03;;;;;;;13.13;3.20;;;;;;;12.82;100.00;101385.41;7400117;19;20488;-42
2023/06/27 01:13:39;;;;;;;12.70;3.03;;;;;;;12.82;100.00;101377.63;7375301;19;20431;-42
2023/06/27 01:16:09;;;;;;;15.47;2.93;;;;;;;12.77;100.00;101389.50;7403065;19;20954;-42
2023/06/27 01:18:40;;;;;;;14.20;3.47;;;;;;;12.82;100.00;101385.41;7374600;19;20437;-43
2023/06/27 01:21:13;;;;;;;9.57;3.30;;;;;;;12.79;100.00;101382.72;7398974;19;20469;-43
2023/06/27 01:23:58;;;;;;;9.83;2.80;;;;;;;12.78;100.00;101378.31;7373855;19;20548;-42
2023/06/27 01:26:29;;;;;;;8.20;3.70;;;;;;;12.80;100.00;101376.69;7376508;19;20411;-41
2023/06/27 01:28:58;;;;;;;12.87;3.30;;;;;;;12.80;100.00;101379.28;7399529;19;20431;-42
2023/06/27 01:31:32;;;;;;;12.50;3.13;;;;;;;12.81;100.00;101378.47;7373175;19;21040;-44
2023/06/27 01:34:05;;;;;;;15.03;3.13;;;;;;;12.84;100.00;101380.31;7396863;19;20416;-42
2023/06/27 01:36:38;;;;;;;9.90;2.97;;;;;;;12.91;100.00;101386.59;7374971;19;20433;-41
2023/06/27 01:39:14;;;;;;;8.00;2.93;;;;;;;12.90;100.00;101387.44;7398152;19;20769;-42
2023/06/27 01:41:48;;;;;;;14.07;2.80;;;;;;;12.92;100.00;101385.81;7374149;19;20524;-42
2023/06/27 01:44:18;;;;;;;13.10;2.93;;;;;;;12.88;100.00;101389.09;7400588;19;21150;-42
2023/06/27 01:46:48;;;;;;;13.93;3.13;;;;;;;12.87;100.00;101390.78;7373786;19;20401;-40
2023/06/27 01:49:18;;;;;;;11.70;3.10;;;;;;;12.80;100.00;101392.22;7399234;19;21018;-42
2023/06/27 01:51:48;;;;;;;7.63;2.60;;;;;;;12.78;100.00;101387.81;7373040;19;21076;-44
2023/06/27 01:54:20;;;;;;;9.37;3.20;;;;;;;12.77;100.00;101379.13;7397600;19;20411;-43
2023/06/27 01:56:50;;;;;;;7.60;2.70;;;;;;;12.75;100.00;101379.91;7373744;19;20438;-39
2023/06/27 01:59:19;;;;;;;11.83;3.33;;;;;;;12.78;100.00;101375.72;7398350;19;20463;-42
2023/06/27 02:01:49;;;;;;;9.33;3.13;;;;;;;12.79;100.00;101379.22;7371514;19;20420;-44
2023/06/27 02:04:18;;;;;;;8.43;2.87;;;;;;;12.83;100.00;101366.47;7397343;19;20409;-42
2023/06/27 02:06:48;;;;;;;11.63;3.07;;;;;;;12.79;100.00;101355.91;7374026;19;20410;-44
2023/06/27 02:09:20;;;;;;;13.23;3.47;;;;;;;12.69;100.00;101352.06;7400980;19;20398;-41
2023/06/27 02:11:50;;;;;;;11.40;2.83;;;;;;;12.73;100.00;101353.97;7374144;19;20403;-41
2023/06/27 02:14:19;;;;;;;7.20;2.63;;;;;;;12.70;100.00;101351.22;7398472;19;20409;-43
2023/06/27 02:16:49;;;;;;;11.13;2.80;;;;;;;12.70;100.00;101338.28;7373454;19;21011;-41
2023/06/27 02:19:19;;;;;;;9.70;3.73;;;;;;;12.75;100.00;101339.38;7398399;19;20416;-42
2023/06/27 02:21:50;;;;;;;15.60;3.57;;;;;;;12.75;100.00;101334.19;7373080;19;20418;-39
2023/06/27 02:24:22;;;;;;;10.53;3.40;;;;;;;12.75;100.00;101334.19;7397092;19;20414;-39
2023/06/27 02:26:52;;;;;;;14.80;4.07;;;;;;;12.80;100.00;101326.59;7373079;19;20478;-40
2023/06/27 02:29:22;;;;;;;11.10;3.20;;;;;;;12.80;100.00;101331.78;7397398;19;20416;-42
2023/06/27 02:31:51;;;;;;;14.20;2.80;;;;;;;12.77;100.00;101326.50;7373574;19;20434;-40
2023/06/27 02:34:22;;;;;;;12.13;3.03;;;;;;;12.78;100.00;101323.94;7397545;19;20485;-40
2023/06/27 02:36:51;;;;;;;19.03;4.30;;;;;;;12.79;100.00;101317.97;7374827;19;20520;-41
2023/06/27 02:39:24;;;;;;;9.00;3.50;;;;;;;12.76;100.00;101322.13;7397605;19;20413;-42
2023/06/27 02:41:53;;;;;;;9.07;3.33;;;;;;;12.86;100.00;101315.63;7373812;19;20805;-40
2023/06/27 02:44:23;;;;;;;8.70;3.73;;;;;;;12.88;100.00;101316.56;7392972;19;20418;-41
2023/06/27 02:46:53;;;;;;;11.30;3.47;;;;;;;12.92;100.00;101321.94;7372152;19;20404;-43
2023/06/27 02:49:22;;;;;;;10.97;3.40;;;;;;;12.93;100.00;101330.59;7393993;19;20405;-41
2023/06/27 02:51:52;;;;;;;11.37;3.67;;;;;;;12.91;100.00;101314.09;7370859;19;20410;-43
2023/06/27 02:54:24;;;;;;;49.50;20.83;;;;;;;12.86;100.00;101311.31;7397227;19;20415;-46
2023/06/27 02:56:54;;;;;;;25.80;11.77;;;;;;;12.80;100.00;101301.59;7372693;19;20396;-42
2023/06/27 02:59:23;;;;;;;17.10;5.53;;;;;;;12.73;100.00;101298.69;7397369;19;20418;-41
2023/06/27 03:01:53;;;;;;;15.67;4.60;;;;;;;12.59;100.00;101311.94;7373540;19;20420;-43
2023/06/27 03:04:23;;;;;;;9.40;3.80;;;;;;;12.44;100.00;101299.25;7398715;19;20752;-39
2023/06/27 03:06:53;;;;;;;7.73;3.63;;;;;;;12.37;100.00;101290.31;7375611;19;20421;-41
2023/06/27 03:09:25;;;;;;;11.33;4.40;;;;;;;12.49;100.00;101283.91;7398657;19;20432;-43
2023/06/27 03:11:55;;;;;;;13.10;6.13;;;;;;;12.41;100.00;101281.00;7373020;19;20421;-42
2023/06/27 03:14:24;;;;;;;34.80;13.00;;;;;;;12.60;100.00;101286.97;7395621;19;20404;-40
2023/06/27 03:16:55;;;;;;;19.37;5.10;;;;;;;12.62;100.00;101300.84;7373046;19;20402;-44
2023/06/27 03:19:25;;;;;;;17.70;5.03;;;;;;;12.55;100.00;101299.69;7396967;19;20401;-42
2023/06/27 03:22:11;;;;;;;13.90;4.10;;;;;;;12.62;100.00;101306.03;7371233;19;20410;-41
2023/06/27 03:24:44;;;;;;;14.40;5.33;;;;;;;12.63;100.00;101308.69;7397070;19;20428;-42
2023/06/27 03:27:13;;;;;;;11.73;4.43;;;;;;;12.53;100.00;101309.09;7372879;19;20433;-42
2023/06/27 03:29:43;;;;;;;10.17;5.00;;;;;;;12.70;100.00;101314.97;7398254;19;20510;-41
2023/06/27 03:32:13;;;;;;;9.20;4.00;;;;;;;12.66;100.00;101318.25;7370313;19;20488;-43
2023/06/27 03:34:44;;;;;;;13.50;5.10;;;;;;;12.50;100.00;101324.47;7393320;19;20447;-43
2023/06/27 03:37:13;;;;;;;15.50;4.50;;;;;;;12.34;100.00;101325.53;7369855;19;20513;-42
2023/06/27 03:39:45;;;;;;;16.93;5.90;;;;;;;12.43;100.00;101331.13;7393985;19;20408;-41
2023/06/27 03:42:16;;;;;;;12.37;4.80;;;;;;;12.42;100.00;101329.34;7370851;19;20401;-42
2023/06/27 03:44:46;;;;;;;9.07;4.23;;;;;;;12.42;100.00;101334.53;7393775;19;20422;-43
2023/06/27 03:47:16;;;;;;;9.13;5.00;;;;;;;12.33;100.00;101334.09;7370383;19;20391;-42
2023/06/27 03:49:45;;;;;;;12.93;5.40;;;;;;;12.36;100.00;101323.91;7395082;19;20880;-42
2023/06/27 03:52:15;;;;;;;9.83;4.43;;;;;;;12.31;100.00;101328.00;7371148;19;20483;-42
2023/06/27 03:54:47;;;;;;;9.57;3.93;;;;;;;12.20;100.00;101324.94;7392030;19;20409;-40
2023/06/27 03:57:17;;;;;;;8.20;3.53;;;;;;;12.18;100.00;101336.91;7369691;19;20485;-42
2023/06/27 03:59:46;;;;;;;13.80;3.60;;;;;;;12.11;100.00;101338.34;7393484;19;20745;-43
2023/06/27 04:02:16;;;;;;;7.97;3.80;;;;;;;12.12;100.00;101345.28;7369785;19;20451;-42
2023/06/27 04:04:45;;;;;;;12.63;3.77;;;;;;;12.13;100.00;101350.53;7393811;19;20439;-43
2023/06/27 04:07:16;;;;;;;17.30;5.80;;;;;;;12.03;100.00;101343.13;7371133;19;20938;-41
2023/06/27 04:09:48;;;;;;;12.37;4.07;;;;;;;12.17;100.00;101345.47;7395565;19;20405;-41
2023/06/27 04:12:17;;;;;;;12.03;3.63;;;;;;;12.15;100.00;101340.22;7370473;19;20449;-45
2023/06/27 04:14:47;;;;;;;9.67;3.80;;;;;;;12.10;100.00;101344.34;7393677;19;20408;-45
2023/06/27 04:17:17;;;;;;;11.30;4.00;;;;;;;12.06;100.00;101348.50;7369632;19;20395;-43
2023/06/27 04:19:46;;;;;;;16.13;7.37;;;;;;;12.17;100.00;101348.97;7393071;19;20418;-44
2023/06/27 04:22:16;;;;;;;14.23;4.13;;;;;;;12.07;100.00;101352.84;7367950;19;20419;-43
2023/06/27 04:24:48;;;;;;;12.03;5.23;;;;;;;12.10;100.00;101359.84;7393072;19;20420;-43
2023/06/27 04:27:18;;;;;;;10.47;3.57;;;;;;;12.09;100.00;101365.81;7369383;19;20860;-41
2023/06/27 04:29:47;;;;;;;9.87;3.20;;;;;;;12.08;100.00;101361.47;7394938;19;20443;-44
2023/06/27 04:32:17;;;;;;;10.93;3.47;;;;;;;12.18;100.00;101363.66;7369736;19;20400;-43
2023/06/27 04:34:46;;;;;;;12.60;5.50;;;;;;;12.37;100.00;101373.13;7393129;19;20405;-40
2023/06/27 04:37:18;;;;;;;14.00;3.97;;;;;;;12.55;100.00;101392.88;7369930;19;20397;-42
2023/06/27 04:39:51;;;;;;;9.83;3.93;;;;;;;12.42;100.00;101406.97;7394615;19;20475;-42
2023/06/27 04:42:20;;;;;;;11.10;4.50;;;;;;;12.43;100.00;101413.94;7370699;19;20454;-40
2023/06/27 04:44:50;;;;;;;13.70;4.37;;;;;;;12.33;100.00;101403.97;7392168;19;20417;-40
2023/06/27 04:47:22;;;;;;;13.83;3.67;;;;;;;12.15;100.00;101400.63;7368491;19;20500;-40
2023/06/27 04:49:53;;;;;;;8.40;3.13;;;;;;;11.73;100.00;101413.28;7391626;19;20786;-44
2023/06/27 04:52:22;;;;;;;7.17;3.10;;;;;;;11.50;100.00;101431.19;7368937;19;20486;-40
2023/06/27 04:54:54;;;;;;;6.80;3.53;;;;;;;11.28;100.00;101435.28;7393164;19;20494;-42
2023/06/27 04:57:24;;;;;;;9.47;2.67;;;;;;;11.15;100.00;101428.63;7368134;19;20426;-42
2023/06/27 04:59:53;;;;;;;4.87;2.23;;;;;;;10.95;100.00;101404.38;7392116;19;20409;-40
2023/06/27 05:02:23;;;;;;;4.63;2.33;;;;;;;10.86;100.00;101402.22;7369656;19;20463;-38
2023/06/27 05:04:53;;;;;;;8.47;2.17;;;;;;;10.84;100.00;101396.09;7394020;19;20402;-43
2023/06/27 05:07:22;;;;;;;5.23;2.30;;;;;;;10.87;100.00;101401.38;7374516;19;20434;-41
2023/06/27 05:09:58;;;;;;;15.80;7.80;;;;;;;10.97;100.00;101401.88;7399630;19;20418;-40
2023/06/27 05:12:28;;;;;;;4.33;2.20;;;;;;;10.87;100.00;101400.53;7374747;19;20871;-40
2023/06/27 05:14:57;;;;;;;4.60;2.07;;;;;;;10.83;100.00;101394.31;7400052;19;20418;-41
2023/06/27 05:17:27;;;;;;;10.13;3.40;;;;;;;10.77;100.00;101394.00;7374476;19;20413;-40
2023/06/27 05:19:56;;;;;;;4.70;2.67;;;;;;;10.82;100.00;101387.34;7399347;19;20423;-46
2023/06/27 05:22:26;;;;;;;7.77;2.20;;;;;;;10.85;100.00;101386.63;7375257;19;20422;-42
2023/06/27 05:24:58;;;;;;;5.07;3.23;;;;;;;10.98;100.00;101367.50;7401941;19;20410;-44
2023/06/27 05:27:28;;;;;;;5.93;2.40;;;;;;;11.02;100.00;101351.34;7377305;19;20478;-42
2023/06/27 05:29:57;;;;;;;4.30;2.20;;;;;;;11.03;100.00;101335.06;7401402;19;20410;-41
2023/06/27 05:32:27;;;;;;;3.73;2.10;;;;;;;11.12;100.00;101311.38;7374617;19;20481;-42
2023/06/27 05:34:57;;;;;;;9.33;2.50;;;;;;;11.21;100.00;101304.06;7399867;19;20414;-41
2023/06/27 05:37:27;;;;;;;4.43;2.37;;;;;;;11.34;100.00;101295.22;7375403;19;20522;-43
2023/06/27 05:39:59;;;;;;;4.77;3.17;;;;;;;11.46;100.00;101236.34;7399490;19;20413;-43
2023/06/27 05:42:29;;;;;;;3.47;2.30;;;;;;;11.52;100.00;101105.63;7374512;19;20487;-42
2023/06/27 05:44:59;;;;;;;8.03;2.70;;;;;;;11.48;100.00;101077.09;7398523;19;20425;-44
2023/06/27 05:47:28;;;;;;;5.83;2.80;;;;;;;11.51;100.00;101052.19;7374703;19;20488;-42
2023/06/27 05:49:58;;;;;;;5.47;3.70;;;;;;;11.67;100.00;101039.13;7399151;19;20437;-42
2023/06/27 05:52:29;;;;;;;6.10;3.40;;;;;;;11.89;100.00;101047.75;7373090;19;20453;-42
2023/06/27 05:55:01;;;;;;;8.43;3.80;;;;;;;12.06;100.00;101045.00;7401265;19;20414;-42
2023/06/27 05:57:31;;;;;;;15.03;4.63;;;;;;;12.23;100.00;101025.88;7373402;19;20795;-46
2023/06/27 06:00:00;;;;;;;9.70;4.50;;;;;;;12.36;100.00;101008.25;7397287;19;20426;-42
2023/06/27 06:02:30;;;;;;;20.70;5.50;;;;;;;12.53;100.00;100995.94;7371403;19;20452;-41
2023/06/27 06:05:03;;;;;;;13.63;4.20;;;;;;;12.47;100.00;100967.25;7399339;19;20405;-42
2023/06/27 06:07:33;;;;;;;10.07;4.77;;;;;;;12.53;100.00;100950.25;7373980;19;20430;-41
2023/06/27 06:10:05;;;;;;;9.30;5.30;;;;;;;12.71;100.00;100925.84;7397993;19;20487;-41
2023/06/27 06:12:35;;;;;;;11.50;4.40;;;;;;;12.73;100.00;100916.44;7372890;19;20459;-42
2023/06/27 06:15:04;;;;;;;9.37;5.00;;;;;;;12.92;100.00;100906.72;7398377;19;20492;-39
2023/06/27 06:17:34;;;;;;;7.67;4.50;;;;;;;12.86;100.00;100881.47;7372974;19;20416;-40
2023/06/27 06:20:07;;;;;;;6.90;4.33;;;;;;;12.92;100.00;100876.50;7397646;19;20430;-42
2023/06/27 06:22:38;;;;;;;9.00;4.53;;;;;;;12.95;100.00;100865.38;7372676;19;20582;-42
2023/06/27 06:25:10;;;;;;;9.97;4.00;;;;;;;12.93;100.00;100848.91;7397976;19;20416;-41
2023/06/27 06:27:40;;;;;;;8.53;4.53;;;;;;;12.96;100.00;100842.13;7371656;19;20441;-43
2023/06/27 06:30:11;;;;;;;11.50;4.13;;;;;;;13.04;100.00;100833.72;7397668;19;20814;-44
2023/06/27 06:32:40;;;;;;;15.27;4.00;;;;;;;13.13;100.00;100843.50;7371239;19;20426;-43
2023/06/27 06:35:10;;;;;;;8.20;3.27;;;;;;;13.08;100.00;100815.75;7397603;19;20418;-41
2023/06/27 06:37:40;;;;;;;8.27;3.53;;;;;;;13.19;100.00;100812.63;7372456;19;20472;-40
2023/06/27 06:40:14;;;;;;;11.63;3.80;;;;;;;13.33;100.00;100826.88;7398777;19;20426;-42
2023/06/27 06:42:44;;;;;;;9.83;3.33;;;;;;;13.50;100.00;100834.34;7372386;19;20886;-42
2023/06/27 06:45:13;;;;;;;6.80;3.50;;;;;;;13.53;100.00;100818.88;7399270;19;20419;-43
2023/06/27 06:47:43;;;;;;;9.73;3.20;;;;;;;13.56;100.00;100821.59;7372874;19;20437;-42
2023/06/27 06:50:12;;;;;;;7.00;2.70;;;;;;;13.61;100.00;100830.38;7399449;19;20451;-44
2023/06/27 06:52:45;;;;;;;7.73;3.70;;;;;;;13.75;100.00;100815.22;7367743;19;20423;-43
2023/06/27 06:55:17;;;;;;;20.60;8.80;;;;;;;13.85;100.00;100818.97;7398450;19;20406;-40
2023/06/27 06:57:47;;;;;;;16.10;4.93;;;;;;;14.11;100.00;100842.19;7371854;19;20434;-44
2023/06/27 07:00:18;;;;;;;11.77;4.53;;;;;;;14.22;100.00;100834.72;7397910;19;20427;-42
2023/06/27 07:02:47;;;;;;;9.60;3.80;;;;;;;14.32;100.00;100843.63;7370638;19;21308;-43
2023/06/27 07:05:17;;;;;;;9.10;3.60;;;;;;;14.07;100.00;100894.84;7399991;19;20475;-44
2023/06/27 07:07:49;;;;;;;11.90;4.37;;;;;;;13.83;100.00;100967.56;7372571;19;20503;-39
2023/06/27 07:10:22;;;;;;;27.83;4.83;;;;;;;13.28;100.00;100999.44;7395245;19;20443;-38
2023/06/27 07:12:51;;;;;;;7.97;3.10;;;;;;;12.80;100.00;101005.53;7369155;19;20506;-41
2023/06/27 07:15:22;;;;;;;14.80;6.20;;;;;;;12.65;100.00;101008.44;7395674;19;21009;-40
2023/06/27 07:17:51;;;;;;;5.67;2.57;;;;;;;12.63;100.00;101036.00;7370694;19;20435;-40
2023/06/27 07:20:22;;;;;;;18.03;5.37;;;;;;;12.70;100.00;101050.91;7397468;19;20901;-42
2023/06/27 07:22:51;;;;;;;10.80;5.27;;;;;;;12.73;100.00;101040.69;7369931;19;20467;-42
2023/06/27 07:25:24;;;;;;;15.80;5.10;;;;;;;12.78;100.00;101030.50;7397610;19;20421;-40
2023/06/27 07:27:53;;;;;;;11.90;5.83;;;;;;;12.86;100.00;101015.25;7371642;19;20430;-40
2023/06/27 07:30:23;;;;;;;16.03;5.43;;;;;;;13.12;100.00;101010.13;7397692;19;20433;-41
2023/06/27 07:32:53;;;;;;;25.53;9.90;;;;;;;13.25;100.00;100986.41;7370936;19;20517;-41
2023/06/27 07:35:22;;;;;;;24.03;8.77;;;;;;;13.25;100.00;100965.69;7398750;19;20987;-40
2023/06/27 07:37:52;;;;;;;30.30;8.73;;;;;;;13.44;100.00;100948.16;7372076;19;21057;-39
2023/06/27 07:40:24;;;;;;;7.67;3.07;;;;;;;13.79;100.00;100927.69;7397247;19;20513;-39
2023/06/27 07:42:54;;;;;;;33.93;14.33;;;;;;;13.81;100.00;100909.59;7370831;19;20464;-40
2023/06/27 07:45:23;;;;;;;13.13;5.80;;;;;;;13.82;100.00;100886.31;7398050;19;20402;-40
2023/06/27 07:47:53;;;;;;;27.23;11.30;;;;;;;13.73;100.00;100878.22;7370566;19;20566;-38
2023/06/27 07:50:23;;;;;;;37.60;15.60;;;;;;;13.91;100.00;100872.75;7397158;19;21034;-39
2023/06/27 07:52:53;;;;;;;11.20;4.93;;;;;;;14.00;100.00;100872.13;7371106;19;20524;-39
2023/06/27 07:55:25;;;;;;;9.90;4.50;;;;;;;14.15;100.00;100880.34;7397515;19;20407;-39
2023/06/27 07:57:54;;;;;;;13.03;6.33;;;;;;;13.88;100.00;100862.25;7366964;19;20439;-39
2023/06/27 08:00:25;;;;;;;11.60;5.43;;;;;;;13.97;100.00;100864.25;7398875;19;20459;-40
2023/06/27 08:02:55;;;;;;;59.87;25.07;;;;;;;13.99;100.00;100849.59;7371246;19;20482;-42
2023/06/27 08:05:27;;;;;;;28.17;12.07;;;;;;;13.99;100.00;100847.00;7400197;19;20448;-39
2023/06/27 08:07:56;;;;;;;4.60;2.63;;;;;;;13.97;100.00;100848.69;7372730;19;20456;-39
2023/06/27 08:10:29;;;;;;;9.53;3.60;;;;;;;14.06;100.00;100846.38;7398353;19;20457;-42
2023/06/27 08:12:58;;;;;;;23.40;9.73;;;;;;;14.06;100.00;100836.00;7371680;19;20419;-42
2023/06/27 08:15:28;;;;;;;24.33;10.63;;;;;;;13.92;100.00;100807.06;7396820;19;20420;-40
2023/06/27 08:17:57;;;;;;;20.30;6.60;;;;;;;13.97;100.00;100802.00;7369118;19;20447;-41
2023/06/27 08:20:27;;;;;;;31.77;11.73;;;;;;;14.22;100.00;100821.75;7395894;19;20983;-40
2023/06/27 08:22:57;;;;;;;7.80;3.10;;;;;;;14.39;100.00;100824.81;7368847;19;21235;-40
2023/06/27 08:25:29;;;;;;;11.33;4.10;;;;;;;14.39;100.00;100813.53;7395978;19;20425;-39
2023/06/27 08:27:58;;;;;;;13.40;5.90;;;;;;;14.20;100.00;100828.59;7373056;19;20974;-43
2023/06/27 08:30:29;;;;;;;6.83;2.70;;;;;;;14.13;100.00;100879.44;7396702;19;20955;-39
2023/06/27 08:32:59;;;;;;;11.57;4.23;;;;;;;13.98;100.00;100881.56;7371040;19;20427;-41
2023/06/27 08:35:28;;;;;;;11.73;3.80;;;;;;;13.90;100.00;100892.59;7396347;19;21047;-41
2023/06/27 08:37:58;;;;;;;4.50;2.30;;;;;;;13.89;100.00;100962.56;7371657;19;20502;-42
2023/06/27 08:40:35;;;;;;;9.53;3.20;;;;;;;13.38;100.00;101070.63;7394930;19;20436;-44
2023/06/27 08:43:06;;;;;;;13.63;4.43;;;;;;;13.09;100.00;101219.00;7372476;19;20425;-39
2023/06/27 08:45:36;;;;;;;10.23;5.50;;;;;;;12.91;100.00;101283.00;7400743;19;20407;-41
2023/06/27 08:48:08;;;;;;;33.53;10.73;;;;;;;12.90;100.00;101289.91;7374500;19;20462;-41
2023/06/27 08:50:41;;;;;;;8.80;3.50;;;;;;;12.85;100.00;101275.00;7398139;19;20550;-39
2023/06/27 08:53:14;;;;;;;10.70;5.57;;;;;;;12.84;100.00;101266.38;7374155;19;20445;-40
2023/06/27 08:55:51;;;;;;;16.97;5.77;;;;;;;12.86;100.00;101258.66;7400109;19;20424;-41
2023/06/27 08:58:24;;;;;;;27.77;10.73;;;;;;;12.93;100.00;101250.31;7375606;19;20877;-41
2023/06/27 09:00:55;;;;;;;6.40;3.53;;;;;;;12.93;100.00;101232.19;7400659;19;20529;-41
2023/06/27 09:03:25;;;;;;;5.00;2.80;;;;;;;12.98;100.00;101233.25;7375697;19;20428;-39
2023/06/27 09:05:56;;;;;;;22.43;9.30;;;;;;;12.98;100.00;101227.19;7401749;19;20934;-40
2023/06/27 09:08:25;;;;;;;31.33;12.43;;;;;;;12.94;100.00;101221.00;7376376;19;20415;-40
2023/06/27 09:10:57;;;;;;;35.80;12.47;;;;;;;12.87;100.00;101208.63;7400922;19;20445;-42
2023/06/27 09:13:28;;;;;;;8.63;4.20;;;;;;;12.89;100.00;101196.63;7376882;19;20447;-42
2023/06/27 09:15:57;;;;;;;32.30;12.60;;;;;;;13.00;100.00;101174.63;7400109;19;20431;-41
2023/06/27 09:18:27;;;;;;;8.50;4.00;;;;;;;13.27;100.00;101113.44;7372533;19;20430;-41
2023/06/27 09:20:57;;;;;;;7.40;4.20;;;;;;;13.69;100.00;101060.47;7397085;19;20442;-43
2023/06/27 09:23:29;;;;;;;9.33;3.83;;;;;;;13.84;100.00;101026.41;7371996;19;20430;-42
2023/06/27 09:26:11;;;;;;;24.80;9.90;;;;;;;13.97;100.00;101002.63;7397169;19;20759;-43
2023/06/27 09:28:48;;;;;;;17.83;6.63;;;;;;;14.13;100.00;100998.78;7373352;19;20966;-42
2023/06/27 09:31:19;;;;;;;17.43;7.03;;;;;;;14.41;100.00;100965.88;7398593;19;20478;-42
2023/06/27 09:33:49;;;;;;;6.63;3.47;;;;;;;14.64;100.00;100951.78;7371844;19;20439;-42
2023/06/27 09:36:34;;;;;;;7.10;4.30;;;;;;;15.03;100.00;100919.97;7374732;19;20403;-43
2023/06/27 09:39:08;;;;;;;4.67;2.67;;;;;;;15.30;100.00;100879.06;7397655;19;20368;-44
2023/06/27 09:41:47;;;;;;;10.43;5.20;;;;;;;15.11;100.00;100873.41;7375210;19;20435;-42
2023/06/27 09:44:18;;;;;;;5.67;2.90;;;;;;;14.57;100.00;100824.41;7398677;19;20418;-43
2023/06/27 09:46:48;;;;;;;5.50;2.57;;;;;;;14.66;100.00;100848.88;7375992;19;20526;-45
2023/06/27 09:49:19;;;;;;;26.13;8.10;;;;;;;14.95;100.00;100857.44;7398799;19;20403;-43
2023/06/27 09:51:50;;;;;;;9.70;3.40;;;;;;;15.03;100.00;100843.75;7372389;19;20423;-42
2023/06/27 09:54:21;;;;;;;8.10;3.83;;;;;;;14.79;100.00;100824.13;7400526;19;20432;-40
2023/06/27 09:56:56;;;;;;;12.43;5.03;;;;;;;14.61;100.00;100892.00;7373582;19;20391;-41
2023/06/27 09:59:26;;;;;;;10.83;3.27;;;;;;;14.72;100.00;101083.63;7399938;19;20403;-43
2023/06/27 10:01:56;;;;;;;13.87;4.50;;;;;;;14.77;100.00;101189.41;7372906;19;20419;-44
2023/06/27 10:04:26;;;;;;;5.23;1.73;;;;;;;14.98;100.00;101231.63;7400302;19;20416;-44
2023/06/27 10:06:59;;;;;;;22.90;6.60;;;;;;;15.01;100.00;101261.16;7375147;19;20854;-43
2023/06/27 10:09:28;;;;;;;6.50;1.60;;;;;;;14.98;100.00;101303.50;7398736;19;20422;-42
2023/06/27 10:12:00;;;;;;;5.40;1.87;;;;;;;14.71;100.00;101331.19;7372791;19;20413;-43
2023/06/27 10:14:30;;;;;;;6.93;2.90;;;;;;;14.34;100.00;101358.44;7396288;19;20396;-42
2023/06/27 10:17:01;;;;;;;8.77;2.87;;;;;;;14.33;100.00;101380.06;7373669;19;21448;-45
2023/06/27 10:19:35;;;;;;;8.87;3.23;;;;;;;14.62;100.00;101369.81;7400158;19;20873;-42
2023/06/27 10:22:04;;;;;;;18.80;7.67;;;;;;;15.02;100.00;101364.25;7370544;19;20495;-41
2023/06/27 10:24:34;;;;;;;13.13;4.50;;;;;;;15.27;100.00;101363.31;7394804;19;20770;-41
2023/06/27 10:27:09;;;;;;;12.40;4.93;;;;;;;15.50;100.00;101351.03;7370226;19;20438;-43
2023/06/27 10:29:42;;;;;;;15.83;3.07;;;;;;;15.61;100.00;101350.50;7396174;19;20407;-43
2023/06/27 10:32:11;;;;;;;8.10;2.90;;;;;;;15.49;100.00;101385.69;7368577;19;20494;-44
2023/06/27 10:34:43;;;;;;;71.73;27.30;;;;;;;15.56;100.00;101437.88;7385721;19;20411;-43
2023/06/27 10:37:13;;;;;;;28.70;11.13;;;;;;;15.42;100.00;101440.91;7369717;19;20412;-43
2023/06/27 10:39:43;;;;;;;19.30;8.67;;;;;;;15.28;100.00;101457.78;7394126;19;20467;-41
2023/06/27 10:42:31;;;;;;;9.63;4.07;;;;;;;15.71;100.00;101467.00;7367831;19;20448;-45
2023/06/27 10:45:06;;;;;;;4.47;1.80;;;;;;;15.89;100.00;101478.81;7395444;19;20392;-44
2023/06/27 10:47:38;;;;;;;8.37;4.00;;;;;;;15.68;100.00;101489.44;7370698;19;20422;-44
2023/06/27 10:50:13;;;;;;;14.83;3.37;;;;;;;15.42;100.00;101500.72;7396060;19;20424;-43
2023/06/27 10:53:00;;;;;;;5.20;1.20;;;;;;;15.69;100.00;101512.00;7369624;19;20482;-42
2023/06/27 10:55:31;;;;;;;11.97;3.57;;;;;;;15.95;100.00;101520.69;7395354;19;20413;-44
2023/06/27 10:58:09;;;;;;;31.03;12.00;;;;;;;15.93;100.00;101545.75;7368402;19;20499;-44
2023/06/27 11:00:44;;;;;;;16.43;4.57;;;;;;;16.13;100.00;101553.31;7387606;19;20447;-46
2023/06/27 11:03:20;;;;;;;10.43;4.07;;;;;;;16.12;100.00;101556.75;7365340;19;20446;-43
2023/06/27 11:06:01;;;;;;;11.47;3.53;;;;;;;15.97;100.00;101559.75;7394768;19;20877;-46
2023/06/27 11:08:32;;;;;;;16.90;3.50;;;;;;;15.63;100.00;101555.19;7353764;19;20419;-42
2023/06/27 11:11:06;;;;;;;9.90;2.93;;;;;;;15.70;100.00;101551.06;7398159;19;20428;-47
2023/06/27 11:13:42;;;;;;;12.03;4.03;;;;;;;16.00;100.00;101545.13;7363190;19;20435;-46
2023/06/27 11:16:12;;;;;;;5.93;1.70;;;;;;;15.89;100.00;101554.28;7398335;19;20478;-43
2023/06/27 11:18:42;;;;;;;9.77;2.90;;;;;;;16.06;100.00;101550.50;7358655;19;20839;-47
2023/06/27 11:21:11;;;;;;;6.73;2.50;;;;;;;16.09;100.00;101531.50;7396546;19;20783;-42
2023/06/27 11:23:44;;;;;;;7.40;2.70;;;;;;;16.41;100.00;101517.72;7341100;19;20427;-44
2023/06/27 11:26:14;;;;;;;15.17;5.57;;;;;;;16.37;100.00;101529.78;7398161;19;20403;-42
2023/06/27 11:28:47;;;;;;;11.70;2.27;;;;;;;16.13;100.00;101540.28;7360276;19;20532;-44